Terminal Aerodrome Forecast
Issued by NWS

Home | Current Version | Previous Version | Text Only | Print | Product List | Glossary On
Versions: 1 2 3 4 5 6 7 8 9 10 11 12 13
000
FTUS44 KLIX 262335
TAFGPT
TAF
KGPT 262335Z 2700/2724 23007KT P6SM FEW040
     FM270200 28011KT P6SM VCSH OVC020
     FM270500 33012KT P6SM OVC007
     FM271200 34010G17KT P6SM OVC019=

USA.gov is the U.S. government's official web portal to all federal, state and local government web resources and services.